sensor_id;sensor_type;location;lat;lon;timestamp;pressure;altitude;pressure_sealevel;temperature;humidity
23427;BME280;41148;45.420;10.952;2022-10-16T00:01:13;101186.22;;;15.99;85.15
23427;BME280;41148;45.420;10.952;2022-10-16T00:03:41;101183.03;;;16.12;84.29
23427;BME280;41148;45.420;10.952;2022-10-16T00:06:09;101185.34;;;15.99;85.28
23427;BME280;41148;45.420;10.952;2022-10-16T00:08:36;101182.69;;;15.77;86.51
23427;BME280;41148;45.420;10.952;2022-10-16T00:11:05;101187.69;;;15.86;86.25
23427;BME280;41148;45.420;10.952;2022-10-16T00:13:33;101181.59;;;16.03;85.24
23427;BME280;41148;45.420;10.952;2022-10-16T00:16:01;101174.69;;;16.18;84.14
23427;BME280;41148;45.420;10.952;2022-10-16T00:18:29;101181.72;;;16.20;84.04
23427;BME280;41148;45.420;10.952;2022-10-16T00:21:01;101178.13;;;16.21;83.79
23427;BME280;41148;45.420;10.952;2022-10-16T00:23:50;101183.63;;;16.18;83.96
23427;BME280;41148;45.420;10.952;2022-10-16T00:26:17;101185.09;;;16.25;83.58
23427;BME280;41148;45.420;10.952;2022-10-16T00:28:45;101196.41;;;16.34;83.11
23427;BME280;41148;45.420;10.952;2022-10-16T00:31:13;101197.53;;;16.28;83.36
23427;BME280;41148;45.420;10.952;2022-10-16T00:33:41;101190.94;;;16.15;84.03
23427;BME280;41148;45.420;10.952;2022-10-16T00:36:10;101184.16;;;16.06;84.58
23427;BME280;41148;45.420;10.952;2022-10-16T00:38:37;101188.03;;;15.99;85.01
23427;BME280;41148;45.420;10.952;2022-10-16T00:41:05;101188.09;;;15.97;85.26
23427;BME280;41148;45.420;10.952;2022-10-16T00:48:39;101187.81;;;15.83;85.97
23427;BME280;41148;45.420;10.952;2022-10-16T00:51:06;101189.88;;;15.77;86.02
23427;BME280;41148;45.420;10.952;2022-10-16T00:53:34;101197.94;;;15.77;86.26
23427;BME280;41148;45.420;10.952;2022-10-16T00:56:02;101196.28;;;15.72;86.48
23427;BME280;41148;45.420;10.952;2022-10-16T00:58:30;101193.88;;;15.66;87.00
23427;BME280;41148;45.420;10.952;2022-10-16T01:00:57;101193.13;;;15.63;87.15
23427;BME280;41148;45.420;10.952;2022-10-16T01:03:26;101192.41;;;15.58;87.74
23427;BME280;41148;45.420;10.952;2022-10-16T01:05:59;101192.53;;;15.55;88.08
23427;BME280;41148;45.420;10.952;2022-10-16T01:08:39;101188.72;;;15.38;89.28
23427;BME280;41148;45.420;10.952;2022-10-16T01:14:08;101185.47;;;15.52;88.78
23427;BME280;41148;45.420;10.952;2022-10-16T01:16:39;101189.56;;;15.62;88.30
23427;BME280;41148;45.420;10.952;2022-10-16T01:19:18;101192.94;;;15.67;87.77
23427;BME280;41148;45.420;10.952;2022-10-16T01:21:47;101189.44;;;15.65;87.77
23427;BME280;41148;45.420;10.952;2022-10-16T01:29:34;101191.78;;;15.51;88.85
23427;BME280;41148;45.420;10.952;2022-10-16T01:32:13;101186.09;;;15.59;88.27
23427;BME280;41148;45.420;10.952;2022-10-16T01:37:41;101189.72;;;15.58;87.95
23427;BME280;41148;45.420;10.952;2022-10-16T01:40:11;101189.44;;;15.65;87.58
23427;BME280;41148;45.420;10.952;2022-10-16T01:42:44;101189.66;;;15.59;87.18
23427;BME280;41148;45.420;10.952;2022-10-16T01:45:13;101191.03;;;15.48;87.85
23427;BME280;41148;45.420;10.952;2022-10-16T01:47:41;101195.47;;;15.49;87.83
23427;BME280;41148;45.420;10.952;2022-10-16T01:50:10;101197.16;;;15.51;88.09
23427;BME280;41148;45.420;10.952;2022-10-16T01:52:40;101195.25;;;15.53;87.78
23427;BME280;41148;45.420;10.952;2022-10-16T01:55:09;101192.56;;;15.53;87.83
23427;BME280;41148;45.420;10.952;2022-10-16T01:57:38;101189.09;;;15.51;87.88
23427;BME280;41148;45.420;10.952;2022-10-16T02:00:07;101197.06;;;15.53;87.80
23427;BME280;41148;45.420;10.952;2022-10-16T02:02:40;101195.97;;;15.58;87.37
23427;BME280;41148;45.420;10.952;2022-10-16T02:05:13;101193.34;;;15.57;87.50
23427;BME280;41148;45.420;10.952;2022-10-16T02:07:42;101203.47;;;15.50;88.12
23427;BME280;41148;45.420;10.952;2022-10-16T02:10:11;101198.03;;;15.52;87.99
23427;BME280;41148;45.420;10.952;2022-10-16T02:12:40;101201.78;;;15.48;88.27
23427;BME280;41148;45.420;10.952;2022-10-16T02:15:09;101206.34;;;15.45;88.51
23427;BME280;41148;45.420;10.952;2022-10-16T02:17:36;101199.91;;;15.50;88.48
23427;BME280;41148;45.420;10.952;2022-10-16T02:20:03;101207.88;;;15.51;88.25
23427;BME280;41148;45.420;10.952;2022-10-16T02:22:35;101201.34;;;15.58;88.08
23427;BME280;41148;45.420;10.952;2022-10-16T02:25:17;101204.03;;;15.58;88.02
23427;BME280;41148;45.420;10.952;2022-10-16T02:27:49;101199.66;;;15.56;88.18
23427;BME280;41148;45.420;10.952;2022-10-16T02:32:50;101204.97;;;15.57;88.26
23427;BME280;41148;45.420;10.952;2022-10-16T02:35:20;101202.28;;;15.57;88.50
23427;BME280;41148;45.420;10.952;2022-10-16T02:37:48;101197.72;;;15.59;88.14
23427;BME280;41148;45.420;10.952;2022-10-16T02:40:16;101205.78;;;15.59;88.19
23427;BME280;41148;45.420;10.952;2022-10-16T02:42:49;101207.66;;;15.57;88.33
23427;BME280;41148;45.420;10.952;2022-10-16T02:45:17;101204.16;;;15.55;88.73
23427;BME280;41148;45.420;10.952;2022-10-16T02:47:45;101202.34;;;15.56;88.64
23427;BME280;41148;45.420;10.952;2022-10-16T02:50:12;101213.81;;;15.59;88.19
23427;BME280;41148;45.420;10.952;2022-10-16T02:52:39;101209.63;;;15.52;88.96
23427;BME280;41148;45.420;10.952;2022-10-16T02:55:06;101209.75;;;15.49;89.37
23427;BME280;41148;45.420;10.952;2022-10-16T02:57:34;101217.69;;;15.52;89.04
23427;BME280;41148;45.420;10.952;2022-10-16T03:00:03;101215.00;;;15.52;89.37
23427;BME280;41148;45.420;10.952;2022-10-16T03:02:31;101213.63;;;15.42;89.85
23427;BME280;41148;45.420;10.952;2022-10-16T03:04:58;101220.56;;;15.48;89.41
23427;BME280;41148;45.420;10.952;2022-10-16T03:07:25;101218.69;;;15.50;89.36
23427;BME280;41148;45.420;10.952;2022-10-16T03:09:53;101220.22;;;15.57;89.00
23427;BME280;41148;45.420;10.952;2022-10-16T03:12:21;101218.22;;;15.62;88.81
23427;BME280;41148;45.420;10.952;2022-10-16T03:14:49;101218.06;;;15.66;88.63
23427;BME280;41148;45.420;10.952;2022-10-16T03:17:16;101225.31;;;15.64;88.69
23427;BME280;41148;45.420;10.952;2022-10-16T03:19:43;101223.28;;;15.69;88.71
23427;BME280;41148;45.420;10.952;2022-10-16T03:22:10;101216.00;;;15.73;88.14
23427;BME280;41148;45.420;10.952;2022-10-16T03:24:38;101227.63;;;15.73;88.10
23427;BME280;41148;45.420;10.952;2022-10-16T03:27:05;101227.13;;;15.64;89.26
23427;BME280;41148;45.420;10.952;2022-10-16T03:29:32;101219.06;;;15.64;89.09
23427;BME280;41148;45.420;10.952;2022-10-16T03:32:00;101217.34;;;15.61;89.06
23427;BME280;41148;45.420;10.952;2022-10-16T03:34:27;101224.22;;;15.68;88.68
23427;BME280;41148;45.420;10.952;2022-10-16T03:36:55;101225.75;;;15.76;88.48
23427;BME280;41148;45.420;10.952;2022-10-16T03:39:22;101229.31;;;15.76;88.28
23427;BME280;41148;45.420;10.952;2022-10-16T03:41:49;101233.81;;;15.76;88.51
23427;BME280;41148;45.420;10.952;2022-10-16T03:44:16;101224.16;;;15.70;89.34
23427;BME280;41148;45.420;10.952;2022-10-16T03:46:44;101228.38;;;15.77;88.65
23427;BME280;41148;45.420;10.952;2022-10-16T03:49:11;101231.78;;;15.81;88.37
23427;BME280;41148;45.420;10.952;2022-10-16T03:51:38;101233.59;;;15.80;88.14
23427;BME280;41148;45.420;10.952;2022-10-16T03:54:06;101233.59;;;15.80;88.23
23427;BME280;41148;45.420;10.952;2022-10-16T03:56:33;101235.63;;;15.75;88.79
23427;BME280;41148;45.420;10.952;2022-10-16T03:59:00;101224.94;;;15.73;88.80
23427;BME280;41148;45.420;10.952;2022-10-16T04:01:27;101227.25;;;15.59;90.04
23427;BME280;41148;45.420;10.952;2022-10-16T04:03:54;101225.50;;;15.58;90.12
23427;BME280;41148;45.420;10.952;2022-10-16T04:06:22;101228.03;;;15.63;89.78
23427;BME280;41148;45.420;10.952;2022-10-16T04:08:49;101228.88;;;15.65;89.58
23427;BME280;41148;45.420;10.952;2022-10-16T04:11:16;101228.56;;;15.49;90.81
23427;BME280;41148;45.420;10.952;2022-10-16T04:13:43;101237.19;;;15.34;92.08
23427;BME280;41148;45.420;10.952;2022-10-16T04:16:11;101233.63;;;15.35;92.17
23427;BME280;41148;45.420;10.952;2022-10-16T04:18:38;101229.72;;;15.42;91.79
23427;BME280;41148;45.420;10.952;2022-10-16T04:21:05;101238.38;;;15.50;91.22
23427;BME280;41148;45.420;10.952;2022-10-16T04:23:32;101243.56;;;15.55;90.98
23427;BME280;41148;45.420;10.952;2022-10-16T04:26:00;101245.16;;;15.37;92.33
23427;BME280;41148;45.420;10.952;2022-10-16T04:28:27;101245.25;;;15.34;92.71
23427;BME280;41148;45.420;10.952;2022-10-16T04:30:54;101239.50;;;15.44;92.10
23427;BME280;41148;45.420;10.952;2022-10-16T04:33:22;101247.28;;;15.51;92.02
23427;BME280;41148;45.420;10.952;2022-10-16T04:35:55;101249.75;;;15.57;91.40
23427;BME280;41148;45.420;10.952;2022-10-16T04:38:22;101253.22;;;15.60;90.80
23427;BME280;41148;45.420;10.952;2022-10-16T04:40:49;101253.97;;;15.64;90.73
23427;BME280;41148;45.420;10.952;2022-10-16T04:43:17;101261.97;;;15.65;90.58
23427;BME280;41148;45.420;10.952;2022-10-16T04:45:44;101264.59;;;15.67;90.21
23427;BME280;41148;45.420;10.952;2022-10-16T04:48:12;101267.50;;;15.61;90.91
23427;BME280;41148;45.420;10.952;2022-10-16T04:50:39;101267.44;;;15.62;90.42
23427;BME280;41148;45.420;10.952;2022-10-16T04:53:06;101265.69;;;15.61;90.68
23427;BME280;41148;45.420;10.952;2022-10-16T04:55:34;101273.47;;;15.45;91.69
23427;BME280;41148;45.420;10.952;2022-10-16T04:58:01;101266.81;;;15.32;92.65
23427;BME280;41148;45.420;10.952;2022-10-16T05:00:28;101282.63;;;15.40;92.70
23427;BME280;41148;45.420;10.952;2022-10-16T05:02:56;101276.97;;;15.48;92.06
23427;BME280;41148;45.420;10.952;2022-10-16T05:05:24;101277.72;;;15.51;91.98
23427;BME280;41148;45.420;10.952;2022-10-16T05:07:51;101288.50;;;15.50;92.30
23427;BME280;41148;45.420;10.952;2022-10-16T05:10:18;101289.09;;;15.58;91.51
23427;BME280;41148;45.420;10.952;2022-10-16T05:12:45;101291.69;;;15.61;90.79
23427;BME280;41148;45.420;10.952;2022-10-16T05:15:13;101286.25;;;15.62;90.58
23427;BME280;41148;45.420;10.952;2022-10-16T05:17:40;101289.16;;;15.56;91.21
23427;BME280;41148;45.420;10.952;2022-10-16T05:20:11;101292.13;;;15.49;91.76
23427;BME280;41148;45.420;10.952;2022-10-16T05:22:38;101287.44;;;15.54;91.17
23427;BME280;41148;45.420;10.952;2022-10-16T05:25:06;101288.16;;;15.59;90.68
23427;BME280;41148;45.420;10.952;2022-10-16T05:27:33;101287.09;;;15.64;90.43
23427;BME280;41148;45.420;10.952;2022-10-16T05:30:00;101281.31;;;15.50;91.83
23427;BME280;41148;45.420;10.952;2022-10-16T05:32:27;101280.31;;;15.53;91.29
23427;BME280;41148;45.420;10.952;2022-10-16T05:34:54;101281.81;;;15.61;91.43
23427;BME280;41148;45.420;10.952;2022-10-16T05:37:22;101285.00;;;15.71;90.54
23427;BME280;41148;45.420;10.952;2022-10-16T05:39:49;101286.47;;;15.80;89.58
23427;BME280;41148;45.420;10.952;2022-10-16T05:42:17;101284.56;;;15.82;89.32
23427;BME280;41148;45.420;10.952;2022-10-16T05:44:45;101290.28;;;15.74;89.93
23427;BME280;41148;45.420;10.952;2022-10-16T05:47:12;101293.34;;;15.65;90.55
23427;BME280;41148;45.420;10.952;2022-10-16T05:49:41;101296.69;;;15.70;90.10
23427;BME280;41148;45.420;10.952;2022-10-16T05:52:08;101299.28;;;15.73;89.72
23427;BME280;41148;45.420;10.952;2022-10-16T05:54:35;101303.53;;;15.55;90.94
23427;BME280;41148;45.420;10.952;2022-10-16T05:57:02;101304.34;;;15.57;91.13
23427;BME280;41148;45.420;10.952;2022-10-16T05:59:29;101304.94;;;15.65;90.62
23427;BME280;41148;45.420;10.952;2022-10-16T06:01:56;101310.94;;;15.72;90.28
23427;BME280;41148;45.420;10.952;2022-10-16T06:04:24;101311.94;;;15.69;90.44
23427;BME280;41148;45.420;10.952;2022-10-16T06:06:51;101317.66;;;15.60;91.39
23427;BME280;41148;45.420;10.952;2022-10-16T06:09:18;101316.50;;;15.67;90.60
23427;BME280;41148;45.420;10.952;2022-10-16T06:11:45;101326.63;;;15.59;91.32
23427;BME280;41148;45.420;10.952;2022-10-16T06:14:12;101321.53;;;15.52;91.59
23427;BME280;41148;45.420;10.952;2022-10-16T06:16:40;101323.56;;;15.46;92.12
23427;BME280;41148;45.420;10.952;2022-10-16T06:19:07;101324.72;;;15.39;92.59
23427;BME280;41148;45.420;10.952;2022-10-16T06:21:36;101327.78;;;15.52;92.01
23427;BME280;41148;45.420;10.952;2022-10-16T06:24:03;101325.56;;;15.65;90.92
23427;BME280;41148;45.420;10.952;2022-10-16T06:26:31;101338.63;;;15.74;90.15
23427;BME280;41148;45.420;10.952;2022-10-16T06:28:58;101338.31;;;15.82;89.63
23427;BME280;41148;45.420;10.952;2022-10-16T06:31:26;101340.31;;;15.77;89.86
23427;BME280;41148;45.420;10.952;2022-10-16T06:33:56;101347.00;;;15.66;89.73
23427;BME280;41148;45.420;10.952;2022-10-16T06:36:24;101350.94;;;15.80;89.75
23427;BME280;41148;45.420;10.952;2022-10-16T06:38:52;101353.97;;;15.94;89.22
23427;BME280;41148;45.420;10.952;2022-10-16T06:41:20;101360.44;;;15.88;89.88
23427;BME280;41148;45.420;10.952;2022-10-16T06:43:47;101360.66;;;15.84;90.28
23427;BME280;41148;45.420;10.952;2022-10-16T06:46:16;101367.41;;;15.94;90.14
23427;BME280;41148;45.420;10.952;2022-10-16T06:48:43;101369.59;;;16.06;89.31
23427;BME280;41148;45.420;10.952;2022-10-16T06:51:12;101377.53;;;16.09;89.06
23427;BME280;41148;45.420;10.952;2022-10-16T06:53:41;101378.75;;;16.02;89.35
23427;BME280;41148;45.420;10.952;2022-10-16T06:56:28;101384.41;;;15.94;89.14
23427;BME280;41148;45.420;10.952;2022-10-16T06:58:58;101385.91;;;16.01;88.87
23427;BME280;41148;45.420;10.952;2022-10-16T07:01:25;101382.81;;;16.12;88.23
23427;BME280;41148;45.420;10.952;2022-10-16T07:03:53;101395.19;;;16.16;87.72
23427;BME280;41148;45.420;10.952;2022-10-16T07:06:21;101391.19;;;16.26;87.22
23427;BME280;41148;45.420;10.952;2022-10-16T07:08:49;101396.25;;;16.34;86.79
23427;BME280;41148;45.420;10.952;2022-10-16T07:11:17;101405.88;;;16.40;86.49
23427;BME280;41148;45.420;10.952;2022-10-16T07:13:45;101400.25;;;16.46;86.40
23427;BME280;41148;45.420;10.952;2022-10-16T07:16:21;101414.34;;;16.52;85.69
23427;BME280;41148;45.420;10.952;2022-10-16T07:18:48;101412.63;;;16.50;85.99
23427;BME280;41148;45.420;10.952;2022-10-16T07:21:21;101418.28;;;16.44;86.24
23427;BME280;41148;45.420;10.952;2022-10-16T07:23:50;101431.78;;;16.42;88.11
23427;BME280;41148;45.420;10.952;2022-10-16T07:26:17;101429.97;;;16.43;88.12
23427;BME280;41148;45.420;10.952;2022-10-16T07:28:44;101433.34;;;16.48;87.10
23427;BME280;41148;45.420;10.952;2022-10-16T07:31:12;101442.97;;;16.53;87.01
23427;BME280;41148;45.420;10.952;2022-10-16T07:33:40;101440.84;;;16.62;86.52
23427;BME280;41148;45.420;10.952;2022-10-16T07:36:10;101445.09;;;16.67;85.64
23427;BME280;41148;45.420;10.952;2022-10-16T07:38:42;101452.28;;;16.67;86.26
23427;BME280;41148;45.420;10.952;2022-10-16T07:41:11;101460.34;;;16.67;86.62
23427;BME280;41148;45.420;10.952;2022-10-16T07:43:39;101457.53;;;16.71;86.18
23427;BME280;41148;45.420;10.952;2022-10-16T07:46:06;101457.31;;;16.76;86.11
23427;BME280;41148;45.420;10.952;2022-10-16T07:48:34;101456.31;;;16.78;86.13
23427;BME280;41148;45.420;10.952;2022-10-16T07:51:02;101467.41;;;16.71;85.24
23427;BME280;41148;45.420;10.952;2022-10-16T07:53:30;101460.16;;;16.73;85.57
23427;BME280;41148;45.420;10.952;2022-10-16T07:55:58;101460.72;;;16.81;85.53
23427;BME280;41148;45.420;10.952;2022-10-16T07:58:27;101462.16;;;16.90;85.17
23427;BME280;41148;45.420;10.952;2022-10-16T08:00:55;101469.88;;;16.97;84.64
23427;BME280;41148;45.420;10.952;2022-10-16T08:03:23;101470.38;;;17.07;84.64
23427;BME280;41148;45.420;10.952;2022-10-16T08:05:50;101472.81;;;17.13;83.81
23427;BME280;41148;45.420;10.952;2022-10-16T08:08:17;101485.25;;;17.15;83.45
23427;BME280;41148;45.420;10.952;2022-10-16T08:10:45;101486.28;;;17.13;83.66
23427;BME280;41148;45.420;10.952;2022-10-16T08:13:12;101487.84;;;16.97;85.29
23427;BME280;41148;45.420;10.952;2022-10-16T08:15:42;101486.50;;;17.07;85.33
23427;BME280;41148;45.420;10.952;2022-10-16T08:18:11;101482.06;;;17.48;83.67
23427;BME280;41148;45.420;10.952;2022-10-16T08:20:38;101480.00;;;17.94;81.38
23427;BME280;41148;45.420;10.952;2022-10-16T08:23:06;101479.94;;;18.33;78.37
23427;BME280;41148;45.420;10.952;2022-10-16T08:25:34;101487.91;;;18.55;77.42
23427;BME280;41148;45.420;10.952;2022-10-16T08:28:09;101485.13;;;19.11;75.12
23427;BME280;41148;45.420;10.952;2022-10-16T08:30:37;101483.63;;;19.58;72.31
23427;BME280;41148;45.420;10.952;2022-10-16T08:33:04;101484.09;;;19.14;73.75
23427;BME280;41148;45.420;10.952;2022-10-16T08:35:33;101488.25;;;18.85;74.71
23427;BME280;41148;45.420;10.952;2022-10-16T08:38:00;101486.72;;;19.15;73.57
23427;BME280;41148;45.420;10.952;2022-10-16T08:40:30;101497.91;;;19.08;73.03
23427;BME280;41148;45.420;10.952;2022-10-16T08:48:30;101487.81;;;20.14;68.68
23427;BME280;41148;45.420;10.952;2022-10-16T08:51:02;101482.16;;;20.34;68.05
23427;BME280;41148;45.420;10.952;2022-10-16T08:53:38;101480.94;;;20.08;68.35
23427;BME280;41148;45.420;10.952;2022-10-16T08:56:08;101485.31;;;19.93;69.54
23427;BME280;41148;45.420;10.952;2022-10-16T08:58:36;101486.13;;;19.78;69.25
23427;BME280;41148;45.420;10.952;2022-10-16T09:01:03;101482.56;;;19.78;69.46
23427;BME280;41148;45.420;10.952;2022-10-16T09:04:10;101486.88;;;19.47;69.67
23427;BME280;41148;45.420;10.952;2022-10-16T09:14:20;101489.03;;;19.58;69.49
23427;BME280;41148;45.420;10.952;2022-10-16T09:16:54;101491.56;;;19.43;68.39
23427;BME280;41148;45.420;10.952;2022-10-16T09:19:26;101488.94;;;19.42;68.43
23427;BME280;41148;45.420;10.952;2022-10-16T09:21:54;101490.38;;;19.32;68.81
23427;BME280;41148;45.420;10.952;2022-10-16T09:24:23;101486.47;;;19.20;68.56
23427;BME280;41148;45.420;10.952;2022-10-16T09:26:55;101486.63;;;19.34;68.68
23427;BME280;41148;45.420;10.952;2022-10-16T09:29:23;101490.63;;;19.44;68.16
23427;BME280;41148;45.420;10.952;2022-10-16T09:31:52;101485.47;;;19.57;68.00
23427;BME280;41148;45.420;10.952;2022-10-16T09:34:25;101481.16;;;19.70;66.75
23427;BME280;41148;45.420;10.952;2022-10-16T09:36:54;101487.91;;;19.79;67.04
23427;BME280;41148;45.420;10.952;2022-10-16T09:39:23;101484.78;;;19.87;66.72
23427;BME280;41148;45.420;10.952;2022-10-16T09:41:50;101475.31;;;19.78;67.00
23427;BME280;41148;45.420;10.952;2022-10-16T09:46:44;101483.66;;;19.91;67.06
23427;BME280;41148;45.420;10.952;2022-10-16T09:49:19;101479.16;;;19.74;67.30
23427;BME280;41148;45.420;10.952;2022-10-16T09:51:47;101483.78;;;19.72;67.99
23427;BME280;41148;45.420;10.952;2022-10-16T09:54:18;101478.66;;;19.83;68.01
23427;BME280;41148;45.420;10.952;2022-10-16T09:56:46;101481.75;;;19.93;68.30
23427;BME280;41148;45.420;10.952;2022-10-16T09:59:19;101483.03;;;19.86;67.52
23427;BME280;41148;45.420;10.952;2022-10-16T10:01:48;101477.13;;;19.95;67.34
23427;BME280;41148;45.420;10.952;2022-10-16T10:04:20;101470.34;;;20.04;67.07
23427;BME280;41148;45.420;10.952;2022-10-16T10:06:51;101470.09;;;20.08;66.73
23427;BME280;41148;45.420;10.952;2022-10-16T10:14:23;101480.22;;;20.36;66.15
23427;BME280;41148;45.420;10.952;2022-10-16T10:16:52;101481.53;;;20.46;65.65
23427;BME280;41148;45.420;10.952;2022-10-16T10:19:23;101474.28;;;20.47;65.24
23427;BME280;41148;45.420;10.952;2022-10-16T10:21:56;101472.06;;;20.38;65.11
23427;BME280;41148;45.420;10.952;2022-10-16T10:24:23;101470.84;;;20.43;65.43
23427;BME280;41148;45.420;10.952;2022-10-16T10:26:53;101473.47;;;20.45;65.19
23427;BME280;41148;45.420;10.952;2022-10-16T10:34:54;101467.44;;;20.55;65.38
23427;BME280;41148;45.420;10.952;2022-10-16T10:39:56;101467.44;;;20.55;66.35
23427;BME280;41148;45.420;10.952;2022-10-16T10:42:30;101466.22;;;20.61;66.30
23427;BME280;41148;45.420;10.952;2022-10-16T10:55:33;101461.47;;;20.33;67.57
23427;BME280;41148;45.420;10.952;2022-10-16T10:58:10;101462.41;;;20.49;67.37
23427;BME280;41148;45.420;10.952;2022-10-16T11:06:11;101452.25;;;20.53;66.97
23427;BME280;41148;45.420;10.952;2022-10-16T11:08:38;101456.03;;;20.66;66.68
23427;BME280;41148;45.420;10.952;2022-10-16T11:11:09;101469.28;;;20.71;66.49
23427;BME280;41148;45.420;10.952;2022-10-16T11:16:11;101460.91;;;20.75;66.63
23427;BME280;41148;45.420;10.952;2022-10-16T11:18:51;101463.84;;;20.71;66.70
23427;BME280;41148;45.420;10.952;2022-10-16T11:21:22;101464.81;;;20.70;66.96
23427;BME280;41148;45.420;10.952;2022-10-16T11:23:59;101462.13;;;20.70;66.82
23427;BME280;41148;45.420;10.952;2022-10-16T11:26:30;101461.34;;;20.68;66.79
23427;BME280;41148;45.420;10.952;2022-10-16T11:28:59;101456.03;;;20.66;66.96
23427;BME280;41148;45.420;10.952;2022-10-16T11:31:30;101451.81;;;20.61;66.24
23427;BME280;41148;45.420;10.952;2022-10-16T11:36:50;101453.03;;;20.55;67.25
23427;BME280;41148;45.420;10.952;2022-10-16T11:39:29;101453.56;;;20.62;67.19
23427;BME280;41148;45.420;10.952;2022-10-16T11:42:41;101456.41;;;20.74;66.90
23427;BME280;41148;45.420;10.952;2022-10-16T11:45:02;101450.75;;;20.79;66.88
23427;BME280;41148;45.420;10.952;2022-10-16T11:47:41;101444.72;;;20.74;67.08
23427;BME280;41148;45.420;10.952;2022-10-16T11:55:48;101448.63;;;20.84;66.02
23427;BME280;41148;45.420;10.952;2022-10-16T12:01:01;101450.19;;;21.04;65.63
23427;BME280;41148;45.420;10.952;2022-10-16T12:03:56;101454.63;;;21.05;65.73
23427;BME280;41148;45.420;10.952;2022-10-16T12:06:25;101442.75;;;20.92;65.81
23427;BME280;41148;45.420;10.952;2022-10-16T12:08:58;101453.69;;;20.90;66.31
23427;BME280;41148;45.420;10.952;2022-10-16T12:16:39;101441.63;;;20.96;65.40
23427;BME280;41148;45.420;10.952;2022-10-16T12:19:17;101449.66;;;20.97;65.40
23427;BME280;41148;45.420;10.952;2022-10-16T12:21:44;101444.59;;;20.91;65.38
23427;BME280;41148;45.420;10.952;2022-10-16T12:24:26;101453.38;;;20.80;66.10
23427;BME280;41148;45.420;10.952;2022-10-16T12:26:55;101448.28;;;20.74;65.82
23427;BME280;41148;45.420;10.952;2022-10-16T12:29:33;101452.06;;;20.72;65.97
23427;BME280;41148;45.420;10.952;2022-10-16T12:32:02;101446.22;;;20.79;66.28
23427;BME280;41148;45.420;10.952;2022-10-16T12:34:40;101453.00;;;20.86;66.46
23427;BME280;41148;45.420;10.952;2022-10-16T12:37:31;101455.44;;;20.91;66.69
23427;BME280;41148;45.420;10.952;2022-10-16T12:39:56;101448.09;;;20.93;66.58
23427;BME280;41148;45.420;10.952;2022-10-16T12:44:52;101449.56;;;20.99;66.54
23427;BME280;41148;45.420;10.952;2022-10-16T12:47:23;101448.50;;;21.01;66.40
23427;BME280;41148;45.420;10.952;2022-10-16T12:49:52;101440.47;;;21.00;66.14
23427;BME280;41148;45.420;10.952;2022-10-16T12:52:27;101446.66;;;21.02;66.20
23427;BME280;41148;45.420;10.952;2022-10-16T12:54:57;101449.28;;;21.03;66.00
23427;BME280;41148;45.420;10.952;2022-10-16T12:57:30;101448.16;;;21.07;65.26
23427;BME280;41148;45.420;10.952;2022-10-16T13:02:41;101451.84;;;21.06;65.31
23427;BME280;41148;45.420;10.952;2022-10-16T13:18:36;101455.94;;;21.13;65.82
23427;BME280;41148;45.420;10.952;2022-10-16T13:21:24;101462.13;;;21.15;65.67
23427;BME280;41148;45.420;10.952;2022-10-16T13:24:03;101453.13;;;21.15;66.00
23427;BME280;41148;45.420;10.952;2022-10-16T13:26:40;101460.19;;;21.18;66.03
23427;BME280;41148;45.420;10.952;2022-10-16T13:29:09;101461.94;;;21.19;65.43
23427;BME280;41148;45.420;10.952;2022-10-16T13:31:37;101463.66;;;21.20;65.48
23427;BME280;41148;45.420;10.952;2022-10-16T13:34:05;101465.25;;;21.24;64.93
23427;BME280;41148;45.420;10.952;2022-10-16T13:36:43;101467.69;;;21.28;64.68
23427;BME280;41148;45.420;10.952;2022-10-16T13:47:20;101465.69;;;21.16;64.09
23427;BME280;41148;45.420;10.952;2022-10-16T13:49:58;101469.47;;;21.13;64.77
23427;BME280;41148;45.420;10.952;2022-10-16T13:52:26;101475.78;;;21.14;64.91
23427;BME280;41148;45.420;10.952;2022-10-16T13:54:53;101467.78;;;21.11;65.57
23427;BME280;41148;45.420;10.952;2022-10-16T13:57:28;101468.88;;;21.08;65.77
23427;BME280;41148;45.420;10.952;2022-10-16T13:59:55;101473.50;;;21.06;65.53
23427;BME280;41148;45.420;10.952;2022-10-16T14:04:49;101470.97;;;21.03;65.54
23427;BME280;41148;45.420;10.952;2022-10-16T14:07:19;101473.50;;;21.06;64.66
23427;BME280;41148;45.420;10.952;2022-10-16T14:09:49;101468.75;;;21.10;64.50
23427;BME280;41148;45.420;10.952;2022-10-16T14:12:17;101470.34;;;21.14;64.64
23427;BME280;41148;45.420;10.952;2022-10-16T14:14:48;101482.06;;;21.14;65.05
23427;BME280;41148;45.420;10.952;2022-10-16T14:19:50;101476.34;;;21.19;64.51
23427;BME280;41148;45.420;10.952;2022-10-16T14:22:33;101472.66;;;21.20;63.94
23427;BME280;41148;45.420;10.952;2022-10-16T14:25:02;101473.63;;;21.19;63.98
23427;BME280;41148;45.420;10.952;2022-10-16T14:27:42;101473.84;;;21.16;64.22
23427;BME280;41148;45.420;10.952;2022-10-16T14:30:13;101474.81;;;21.15;64.34
23427;BME280;41148;45.420;10.952;2022-10-16T14:32:51;101477.59;;;21.13;64.02
23427;BME280;41148;45.420;10.952;2022-10-16T14:37:55;101481.97;;;21.16;64.11
23427;BME280;41148;45.420;10.952;2022-10-16T14:40:24;101478.09;;;21.20;63.85
23427;BME280;41148;45.420;10.952;2022-10-16T14:42:52;101484.22;;;21.24;63.72
23427;BME280;41148;45.420;10.952;2022-10-16T14:45:20;101479.56;;;21.26;63.34
23427;BME280;41148;45.420;10.952;2022-10-16T14:47:57;101478.53;;;21.28;62.46
23427;BME280;41148;45.420;10.952;2022-10-16T14:50:25;101475.81;;;21.28;62.61